Flight Track Log - Related Links

Times and Time Zones

All times are in EDT time to prevent confusion due to time zone crossing. See the RPA4937 flight status page for this flight to view local times or setup timezone preferences in your user account.

Time Position Orientation Groundspeed Altitude Reporting Facility
EDT Latitude Longitude Course Direction KTS MPH feet Rate Location/Type
Sun 09:48:32 AM 40.7333 -74.1333 180° South 209 241 2,700  Level New TRACON
Sun 09:49:32 AM 40.7333 -74.2000 270° West 233 268 4,900 2,350 Climbing New TRACON
Sun 09:50:00 AM 40.4178 -74.2142 157° South  Level FlightAware
Sun 09:50:32 AM 40.6833 -74.2333 207° Southwest 233 268 7,400  Level New TRACON
Sun 09:51:00 AM 40.3270 -74.1647 157° South  Level FlightAware
Sun 09:51:32 AM 40.6333 -74.2833 217° Southwest 225 259 9,800  Level New TRACON
Sun 09:52:00 AM 40.2331 -74.1723 194° South  Level FlightAware
Sun 09:53:00 AM 40.1374 -74.2000 180° South  Level FlightAware
Sun 09:53:07 AM 40.5400 -74.3075 191° South 278 320 10,900  Level New Center
Sun 09:54:05 AM 40.4547 -74.2978 175° South 305 351 11,000 50 Climbing New Center
Sun 09:55:06 AM 40.3572 -74.2872 175° South 319 367 11,000  Level New Center
Sun 09:56:06 AM 40.2739 -74.2803 176° South 330 380 11,000 298 Level New Center
Sun 09:57:07 AM 40.1742 -74.2697 175° South 330 380 11,600 931 Climbing New Center
Sun 09:58:02 AM 40.0914 -74.2600 175° South 330 380 12,800 1,293 Climbing Washington Center
Sun 09:59:03 AM 40.0083 -74.2697 185° South 323 372 14,100 1,289 Climbing Washington Center
Sun 10:00:03 AM 39.9444 -74.3467 223° Southwest 298 343 15,400 1,261 Climbing Washington Center
Sun 10:01:02 AM 39.8808 -74.4236 223° Southwest 305 351 16,600 1,210 Climbing Washington Center
Sun 10:02:02 AM 39.8169 -74.4975 222° Southwest 310 357 17,800 1,008 Climbing Washington Center
Sun 10:03:01 AM 39.7550 -74.5767 225° Southwest 310 357 18,600 958 Climbing Washington Center
Sun 10:04:01 AM 39.6889 -74.6531 222° Southwest 315 362 19,700 942 Climbing Washington Center
Sun 10:05:02 AM 39.6311 -74.7211 222° Southwest 315 362 20,500 893 Climbing Washington Center
Sun 10:06:02 AM 39.5672 -74.7975 223° Southwest 315 362 21,500 750 Climbing Washington Center
Sun 10:07:02 AM 39.5008 -74.8733 221° Southwest 315 362 22,000 496 Climbing Washington Center
Sun 10:08:03 AM 39.4325 -74.9575 224° Southwest 325 374 22,500 655 Climbing Washington Center
Sun 10:09:01 AM 39.3622 -75.0358 221° Southwest 330 380 23,300 706 Climbing Washington Center
Sun 10:10:02 AM 39.2981 -75.1169 224° Southwest 330 380 23,900 344 Climbing Washington Center
Sun 10:11:03 AM 39.2314 -75.2003 224° Southwest 330 380 24,000 50 Climbing Washington Center
Sun 10:12:01 AM 39.1672 -75.2944 229° Southwest 340 391 24,000  Level Washington Center
Sun 10:13:01 AM 39.0944 -75.3803 222° Southwest 350 403 24,000  Level Washington Center
Sun 10:14:02 AM 39.0236 -75.4714 225° Southwest 355 409 24,000  Level Washington Center
Sun 10:15:03 AM 38.9550 -75.5597 225° Southwest 355 409 24,000  Level Washington Center
Sun 10:16:00 AM 38.8861 -75.6531 227° Southwest 355 409 24,000  Level Washington Center
Sun 10:17:01 AM 38.8506 -75.7675 248° West 341 392 24,000  Level Washington Center
Sun 10:18:01 AM 38.8169 -75.8819 249° West 346 398 24,000  Level Washington Center
Sun 10:19:02 AM 38.7564 -75.9722 229° Southwest 346 398 24,000  Level Washington Center
Sun 10:20:02 AM 38.6728 -76.0489 216° Southwest 346 398 24,000 -150 Level Washington Center
Sun 10:21:02 AM 38.5933 -76.1203 215° Southwest 357 411 23,700 -694 Descending Washington Center
Sun 10:22:03 AM 38.4989 -76.2019 214° Southwest 372 428 22,600 -857 Descending Washington Center
Sun 10:23:01 AM 38.4089 -76.2700 211° Southwest 378 435 22,000 -305 Descending Washington Center
Sun 10:24:01 AM 38.3231 -76.3381 212° Southwest 372 428 22,000  Level Washington Center
Sun 10:25:02 AM 38.2478 -76.3956 211° Southwest 366 421 22,000  Level Washington Center
Sun 10:26:02 AM 38.1639 -76.4633 212° Southwest 366 421 22,000  Level Washington Center
Sun 10:27:03 AM 38.0797 -76.5308 212° Southwest 366 421 22,000  Level Washington Center
Sun 10:28:03 AM 37.9939 -76.5983 212° Southwest 366 421 22,000  Level Washington Center
Sun 10:29:02 AM 37.9097 -76.6631 211° Southwest 366 421 22,000  Level Washington Center
Sun 10:30:02 AM 37.8278 -76.7275 212° Southwest 366 421 22,000  Level Washington Center
Sun 10:31:03 AM 37.7417 -76.7944 212° Southwest 366 421 22,000  Level Washington Center
Sun 10:32:03 AM 37.6492 -76.8664 212° Southwest 366 421 22,000  Level Washington Center
Sun 10:33:01 AM 37.5672 -76.9306 212° Southwest 361 415 22,000  Level Washington Center
Sun 10:34:01 AM 37.4831 -76.9997 213° Southwest 361 415 22,000  Level Washington Center
Sun 10:35:01 AM 37.4072 -77.0558 210° Southwest 368 423 22,000 -149 Level Washington Center
Sun 10:36:02 AM 37.3167 -77.1275 212° Southwest 368 423 21,700 -595 Descending Washington Center
Sun 10:37:02 AM 37.2386 -77.1806 208° Southwest 363 418 20,800 -843 Descending Washington Center
Sun 10:38:03 AM 37.1525 -77.2414 209° Southwest 357 411 20,000 -397 Descending Washington Center
Sun 10:39:03 AM 37.0719 -77.3178 217° Southwest 357 411 20,000  Level Washington Center
Sun 10:40:01 AM 36.9958 -77.3914 218° Southwest 357 411 20,000  Level Washington Center
Sun 10:41:03 AM 36.9197 -77.4675 219° Southwest 357 411 20,000  Level Washington Center
Sun 10:42:01 AM 36.8392 -77.5408 216° Southwest 357 411 20,000  Level Washington Center
Sun 10:43:01 AM 36.7586 -77.6167 217° Southwest 357 411 20,000 -350 Level Washington Center
Sun 10:44:01 AM 36.6844 -77.6897 218° Southwest 351 404 19,300 -1,190 Descending Washington Center
Sun 10:45:02 AM 36.6058 -77.7603 216° Southwest 351 404 17,600 -1,736 Descending Washington Center
Sun 10:46:02 AM 36.5294 -77.8383 219° Southwest 351 404 15,800 -1,700 Descending Washington Center
Sun 10:47:02 AM 36.4550 -77.9058 216° Southwest 346 398 14,200 -1,842 Descending Washington Center
Sun 10:47:43 AM 36.3936 -77.9581 214° Southwest 319 367 12,700 -1,831 Descending Washington Center
Sun 10:48:01 AM 36.3764 -77.9756 219° Southwest 339 390 12,400 -1,333 Descending Washington Center
Sun 10:48:19 AM 36.3572 -77.9931 216° Southwest 312 359 11,900 -1,500 Descending Washington Center
Sun 10:49:01 AM 36.3106 -78.0433 221° Southwest 327 376 10,900 -1,475 Descending Washington Center
Sun 10:49:20 AM 36.2892 -78.0581 209° Southwest 302 348 10,400 -1,377 Descending Washington Center
Sun 10:50:02 AM 36.2444 -78.1006 217° Southwest 307 353 9,500 -1,282 Descending Washington Center
Sun 10:51:03 AM 36.1850 -78.1578 218° Southwest 289 333 8,200 -706 Descending Washington Center
Sun 10:52:01 AM 36.1375 -78.2308 231° Southwest 271 312 8,100 -164 Descending Washington Center
Sun 10:52:16 AM 36.1286 -78.2536 244° Southwest 276 318 8,000  Descending Washington Center
Sun 10:53:02 AM 36.1022 -78.3119 241° Southwest 271 312 8,100  Climbing Washington Center
Sun 10:53:23 AM 36.0869 -78.3369 233° Southwest 273 314 8,000 -80 Descending Washington Center
Sun 10:54:17 AM 36.0519 -78.4156 241° Southwest 270 311 8,000  Level Washington Center
Sun 10:55:01 AM 36.0256 -78.4711 240° Southwest 271 312 8,000  Level Washington Center
Sun 10:55:19 AM 36.0144 -78.4911 236° Southwest 272 313 8,000  Level Washington Center
Sun 10:56:01 AM 35.9858 -78.5517 240° Southwest 271 312 8,000  Level Washington Center
Sun 10:56:19 AM 35.9708 -78.5717 227° Southwest 273 314 8,000  Level Washington Center
Sun 10:57:02 AM 35.9383 -78.6217 231° Southwest 271 312 8,000 -517 Level Washington Center
Sun 10:57:17 AM 35.9192 -78.6364 212° Southwest 270 311 7,500 -1,683 Descending Washington Center
Sun 10:58:24 AM 35.8550 -78.6956 217° Southwest 255 293 5,700 -1,770 Descending Washington Center
Sun 10:59:19 AM 35.8056 -78.7472 220° Southwest 247 284 3,900 -1,397 Descending Washington Center
Sun 11:00:20 AM 35.7581 -78.8094 227° Southwest 246 283 3,000 -446 Descending Washington Center
Sun 11:01:20 AM 35.7169 -78.8692 230° Southwest 225 259 3,000 -347 Level Washington Center
Sun 11:02:21 AM 35.7400 -78.9392 292° West 227 261 2,300 -492 Descending Washington Center
Sun 11:03:22 AM 35.7781 -78.9203 22° Northeast 163 188 2,000 -295 Descending Washington Center

Login

Don't have an account? Register now (free) for customized features, flight alerts, and more!